Airfield :
LOGIN :

Register | Disclaimer

   EN    FR    IT 

 










Legend :    VFR   Marginal VFR   IFR   Intensive IFR   Very Intensive IFR
Visi :
Ceiling :
>= 8 km
>= 3000ft
5 to 8 km
1000 to 3000 ft
1500m to 5 km
500 to 1000 ft
800 to 1500m
200 to 500 ft
< 800m
< 200 ft
Symbols :   Thunderstorms  Fog  Heavy snow  Heavy precipitations  Wind > 20 kt
SIGMETs :     Misc.  Thunderstorms  Icing  Turbulence  Mountain Waves  Volcanic Ashes






- Airport Elevation : 1895 ft


LSMM - Meiringen

CURRENT METAR :
  • 231320Z VRB06KT 9999 -RA FEW015 SCT024 OVC047 04/00 Q1013 RMK BLU

EXPIRED METARs :
  • 231250Z VRB07G20KT 9999 -DZ FEW015 SCT027 OVC045 04/00 Q1013 RMK BLU
  • 231220Z VRB10KT 9999 -DZ FEW015 SCT025 OVC046 04/00 Q1013 RMK BLU
  • 231150Z 05010G20KT 360V100 9999 -RA FEW015 SCT027 OVC049 03/01 Q1013 RMK BLU
  • 231120Z 05009KT 330V110 9999 -RA FEW015 SCT027 BKN049 04/01 Q1013 RMK BLU
  • 231050Z AUTO 05008G18KT 320V100 9999NDV -RASN FEW021 BKN046 03/M01 Q1013 RMK
  • 231020Z AUTO VRB08G19KT 9999NDV -RASN FEW020 BKN035 BKN045 03/00 Q1013 RMK
  • 230950Z 04008KT 340V100 9999 -RASN FEW025 OVC042 03/M01 Q1013 RMK BLU
  • 230920Z 04010KT 350V090 9999 -RASN BKN037 OVC042 03/M00 Q1013 RMK BLU
  • 230850Z 04009KT 330V110 9999 -SHRASN BKN037 OVC044 02/M00 Q1013 RMK BLU
  • 230820Z 03011KT 340V080 9999 -SHRASN FEW022 OVC038 02/M00 Q1013 RMK BLU

Expired Forecast.



MET'MAP, your aeronautical weather chart ! - Copyright ORBIFLY December 2007 - Disclaimer

ORBIFLY MET'MAP TEAM :

Programming & Development : Alexandra Zaïnal
Original concept : Baudouin d'Aumeries
Technical & hardware support : Manuel Goepfert
Assistance : Marc-Olivier Méhu




SOURCES & CREDITS :

   NOAA